首页
METAR-TAF:

METAR-TAF

机场 :

Altenstadt, 德国

纬度: 47-50N, 经度: 010-52E, 海拔: 739米

当前天气观测

该预报发布于59分钟前的01:20 UTC
风速4节,风向西转西南
温度 5°C
湿度 70%
气压 1028 hPa

METAR: ETHA 070120Z AUTO 25004KT //// // ////// 05/M00 Q1028 ///

时间: 04:19 (02:19 UTC)

预报

该预报发布于13小时和18分钟前的13:01 UTC
预报有效从06日的 14点(UTC)到 06日的 23点(UTC)
风速5节,风向北转西北
能見度: 1320
天空无云

TAF: ETHA 061301Z 0614/0623 34005KT 9999 NSW SKC CANCEL 1320

超过4000个机场的气象观测和天气预报(METAR&TAF报告)。

可查询的气象台以黄色和红色小点在地图上表示。

将鼠标移到小点上方,可查看气象台名称。

然后点击查看天气观测和预报。

如需切换地图:点击带黑十字的绿色按钮放大地图;点击带横线的绿色按钮缩小地图;或者点击绿色箭头查看邻近地区的地图。


METAR-TAF: